Patterson, Iowa
Current Conditions -  °F | °C
As of 6:13 PM on Monday 24 Nov 2014 (Local Time) from KDSM Reporting Station
Overcast Overcast  
Wind Chill: 13°   Ceiling: 3300
Heat Index: 28°   Visibility: 10mi
Dew Point: 16°   Wind: 26mph
Humidity: 61%   Direction: 320°NW
Pressure: 29.84"   Gusts: 33mph
Location:  41.35°N, 93.88°W
Report Text: KDSM 250013Z 32023G29KT 10SM SCT026 BKN033 OVC044 M02/M09 A2984 RMK AO2 PK WND 32029/0012 T10221089
Loading
Personal Weather Stations






























Interactive Weather Map New forecast layout! Learn more

10-Day Weather Forecast

Advertisements
Track Severe Weather on mobile